sensor_id;sensor_type;location;lat;lon;timestamp;pressure;altitude;pressure_sealevel;temperature;humidity
39897;BME280;25567;48.276;14.242;2022-11-11T00:03:26;100029.28;;;3.59;100.00
39897;BME280;25567;48.276;14.242;2022-11-11T00:05:54;100038.97;;;3.58;100.00
39897;BME280;25567;48.276;14.242;2022-11-11T00:08:25;100034.97;;;3.54;100.00
39897;BME280;25567;48.276;14.242;2022-11-11T00:10:51;100031.38;;;3.55;100.00
39897;BME280;25567;48.276;14.242;2022-11-11T00:13:18;100031.53;;;3.54;100.00
39897;BME280;25567;48.276;14.242;2022-11-11T00:15:45;100026.38;;;3.62;100.00
39897;BME280;25567;48.276;14.242;2022-11-11T00:18:11;100023.09;;;3.60;100.00
39897;BME280;25567;48.276;14.242;2022-11-11T00:20:56;100018.66;;;3.60;100.00
39897;BME280;25567;48.276;14.242;2022-11-11T00:23:38;100016.16;;;3.59;100.00
39897;BME280;25567;48.276;14.242;2022-11-11T00:26:25;100010.75;;;3.70;100.00
39897;BME280;25567;48.276;14.242;2022-11-11T00:29:05;100008.06;;;3.80;100.00
39897;BME280;25567;48.276;14.242;2022-11-11T00:31:34;99999.78;;;3.75;100.00
39897;BME280;25567;48.276;14.242;2022-11-11T00:34:01;99999.22;;;3.81;100.00
39897;BME280;25567;48.276;14.242;2022-11-11T00:36:27;99998.84;;;3.76;100.00
39897;BME280;25567;48.276;14.242;2022-11-11T00:38:54;99998.34;;;3.90;100.00
39897;BME280;25567;48.276;14.242;2022-11-11T00:41:22;99997.50;;;3.90;100.00
39897;BME280;25567;48.276;14.242;2022-11-11T00:43:49;99998.84;;;3.94;100.00
39897;BME280;25567;48.276;14.242;2022-11-11T00:46:16;99998.34;;;3.90;100.00
39897;BME280;25567;48.276;14.242;2022-11-11T00:48:59;100001.34;;;3.95;100.00
39897;BME280;25567;48.276;14.242;2022-11-11T00:51:41;100002.97;;;3.96;100.00
39897;BME280;25567;48.276;14.242;2022-11-11T00:54:08;100009.06;;;3.97;100.00
39897;BME280;25567;48.276;14.242;2022-11-11T00:56:35;100010.28;;;4.03;100.00
39897;BME280;25567;48.276;14.242;2022-11-11T00:59:04;100003.09;;;4.05;100.00
39897;BME280;25567;48.276;14.242;2022-11-11T01:01:34;100009.97;;;4.06;100.00
39897;BME280;25567;48.276;14.242;2022-11-11T01:04:01;99999.63;;;4.04;100.00
39897;BME280;25567;48.276;14.242;2022-11-11T01:06:28;99990.94;;;4.04;100.00
39897;BME280;25567;48.276;14.242;2022-11-11T01:08:54;99988.84;;;4.07;100.00
39897;BME280;25567;48.276;14.242;2022-11-11T01:11:22;99988.97;;;4.06;100.00
39897;BME280;25567;48.276;14.242;2022-11-11T01:13:50;99985.84;;;4.20;100.00
39897;BME280;25567;48.276;14.242;2022-11-11T01:16:20;99984.41;;;4.08;100.00
39897;BME280;25567;48.276;14.242;2022-11-11T01:18:48;99986.66;;;4.03;100.00
39897;BME280;25567;48.276;14.242;2022-11-11T01:21:18;99985.69;;;4.04;100.00
39897;BME280;25567;48.276;14.242;2022-11-11T01:23:46;99975.19;;;4.04;100.00
39897;BME280;25567;48.276;14.242;2022-11-11T01:26:19;99977.81;;;4.04;100.00
39897;BME280;25567;48.276;14.242;2022-11-11T01:28:55;99978.34;;;4.07;100.00
39897;BME280;25567;48.276;14.242;2022-11-11T01:31:23;99978.34;;;4.07;100.00
39897;BME280;25567;48.276;14.242;2022-11-11T01:33:50;99990.63;;;4.07;100.00
39897;BME280;25567;48.276;14.242;2022-11-11T01:36:20;99982.38;;;4.01;100.00
39897;BME280;25567;48.276;14.242;2022-11-11T01:38:49;99982.91;;;4.05;100.00
39897;BME280;25567;48.276;14.242;2022-11-11T01:41:20;99988.00;;;4.07;100.00
39897;BME280;25567;48.276;14.242;2022-11-11T01:44:16;99989.66;;;4.08;100.00
39897;BME280;25567;48.276;14.242;2022-11-11T01:46:53;99990.47;;;4.08;100.00
39897;BME280;25567;48.276;14.242;2022-11-11T01:54:35;99988.97;;;4.06;100.00
39897;BME280;25567;48.276;14.242;2022-11-11T01:57:08;99992.13;;;4.09;100.00
39897;BME280;25567;48.276;14.242;2022-11-11T01:59:39;99992.13;;;4.09;100.00
39897;BME280;25567;48.276;14.242;2022-11-11T02:02:19;99990.31;;;4.10;100.00
39897;BME280;25567;48.276;14.242;2022-11-11T02:04:48;99985.44;;;4.15;100.00
39897;BME280;25567;48.276;14.242;2022-11-11T02:07:31;99985.44;;;4.15;100.00
39897;BME280;25567;48.276;14.242;2022-11-11T02:10:00;99994.19;;;4.15;100.00
39897;BME280;25567;48.276;14.242;2022-11-11T02:12:28;99992.06;;;4.19;100.00
39897;BME280;25567;48.276;14.242;2022-11-11T02:15:09;99994.41;;;4.22;100.00
39897;BME280;25567;48.276;14.242;2022-11-11T02:17:39;99992.97;;;4.28;100.00
39897;BME280;25567;48.276;14.242;2022-11-11T02:20:07;99998.38;;;4.26;100.00
39897;BME280;25567;48.276;14.242;2022-11-11T02:22:41;99998.81;;;4.22;100.00
39897;BME280;25567;48.276;14.242;2022-11-11T02:25:12;99992.75;;;4.21;100.00
39897;BME280;25567;48.276;14.242;2022-11-11T02:27:42;99995.22;;;4.23;100.00
39897;BME280;25567;48.276;14.242;2022-11-11T02:30:11;99993.06;;;4.18;100.00
39897;BME280;25567;48.276;14.242;2022-11-11T02:32:43;99993.88;;;4.18;100.00
39897;BME280;25567;48.276;14.242;2022-11-11T02:35:15;99996.19;;;4.22;100.00
39897;BME280;25567;48.276;14.242;2022-11-11T02:37:45;99991.25;;;4.18;100.00
39897;BME280;25567;48.276;14.242;2022-11-11T02:40:18;99988.63;;;4.18;100.00
39897;BME280;25567;48.276;14.242;2022-11-11T02:42:46;100001.44;;;4.22;100.00
39897;BME280;25567;48.276;14.242;2022-11-11T02:45:12;100000.09;;;4.17;100.00
39897;BME280;25567;48.276;14.242;2022-11-11T02:47:39;100001.22;;;4.15;100.00
39897;BME280;25567;48.276;14.242;2022-11-11T02:50:06;100007.69;;;4.21;100.00
39897;BME280;25567;48.276;14.242;2022-11-11T02:52:33;100012.13;;;4.38;100.00
39897;BME280;25567;48.276;14.242;2022-11-11T02:55:00;100016.63;;;4.28;100.00
39897;BME280;25567;48.276;14.242;2022-11-11T02:57:28;100018.03;;;4.22;100.00
39897;BME280;25567;48.276;14.242;2022-11-11T02:59:57;100022.69;;;4.28;100.00
39897;BME280;25567;48.276;14.242;2022-11-11T03:02:24;100023.00;;;4.25;100.00
39897;BME280;25567;48.276;14.242;2022-11-11T03:04:54;100023.69;;;4.27;100.00
39897;BME280;25567;48.276;14.242;2022-11-11T03:07:21;100033.81;;;4.22;100.00
39897;BME280;25567;48.276;14.242;2022-11-11T03:09:48;100037.63;;;4.28;100.00
39897;BME280;25567;48.276;14.242;2022-11-11T03:12:15;100032.16;;;4.39;100.00
39897;BME280;25567;48.276;14.242;2022-11-11T03:14:42;100036.34;;;4.32;100.00
39897;BME280;25567;48.276;14.242;2022-11-11T03:17:09;100039.28;;;4.29;100.00
39897;BME280;25567;48.276;14.242;2022-11-11T03:19:51;100049.25;;;4.25;100.00
39897;BME280;25567;48.276;14.242;2022-11-11T03:22:18;100047.91;;;4.21;100.00
39897;BME280;25567;48.276;14.242;2022-11-11T03:25:05;100053.84;;;4.23;100.00
39897;BME280;25567;48.276;14.242;2022-11-11T03:27:47;100058.13;;;4.42;100.00
39897;BME280;25567;48.276;14.242;2022-11-11T03:30:14;100047.47;;;4.44;100.00
39897;BME280;25567;48.276;14.242;2022-11-11T03:32:42;100048.31;;;4.44;100.00
39897;BME280;25567;48.276;14.242;2022-11-11T03:35:09;100049.06;;;4.37;100.00
39897;BME280;25567;48.276;14.242;2022-11-11T03:37:35;100038.69;;;4.35;100.00
39897;BME280;25567;48.276;14.242;2022-11-11T03:40:17;100044.84;;;4.44;100.00
39897;BME280;25567;48.276;14.242;2022-11-11T03:42:44;100045.22;;;4.49;100.00
39897;BME280;25567;48.276;14.242;2022-11-11T03:45:10;100043.41;;;4.49;100.00
39897;BME280;25567;48.276;14.242;2022-11-11T03:47:37;100043.81;;;4.37;100.00
39897;BME280;25567;48.276;14.242;2022-11-11T03:50:04;100052.66;;;4.36;100.00
39897;BME280;25567;48.276;14.242;2022-11-11T03:52:30;100052.97;;;4.32;100.00
39897;BME280;25567;48.276;14.242;2022-11-11T03:54:57;100047.81;;;4.31;100.00
39897;BME280;25567;48.276;14.242;2022-11-11T03:57:24;100050.31;;;4.32;100.00
39897;BME280;25567;48.276;14.242;2022-11-11T03:59:58;100051.28;;;4.31;100.00
39897;BME280;25567;48.276;14.242;2022-11-11T04:02:25;100057.53;;;4.30;100.00
39897;BME280;25567;48.276;14.242;2022-11-11T04:05:07;100060.84;;;4.32;100.00
39897;BME280;25567;48.276;14.242;2022-11-11T04:07:50;100055.94;;;4.38;100.00
39897;BME280;25567;48.276;14.242;2022-11-11T04:10:32;100059.94;;;4.60;100.00
39897;BME280;25567;48.276;14.242;2022-11-11T04:12:59;100060.31;;;4.65;100.00
39897;BME280;25567;48.276;14.242;2022-11-11T04:15:41;100056.94;;;4.55;100.00
39897;BME280;25567;48.276;14.242;2022-11-11T04:18:25;100054.59;;;4.51;100.00
39897;BME280;25567;48.276;14.242;2022-11-11T04:21:07;100057.84;;;4.63;100.00
39897;BME280;25567;48.276;14.242;2022-11-11T04:23:49;100046.56;;;4.53;100.00
39897;BME280;25567;48.276;14.242;2022-11-11T04:26:16;100050.16;;;4.52;100.00
39897;BME280;25567;48.276;14.242;2022-11-11T04:28:46;100043.72;;;4.64;100.00
39897;BME280;25567;48.276;14.242;2022-11-11T04:31:28;100042.00;;;4.55;100.00
39897;BME280;25567;48.276;14.242;2022-11-11T04:33:54;100048.53;;;4.51;100.00
39897;BME280;25567;48.276;14.242;2022-11-11T04:36:21;100050.09;;;4.44;100.00
39897;BME280;25567;48.276;14.242;2022-11-11T04:38:48;100054.47;;;4.53;100.00
39897;BME280;25567;48.276;14.242;2022-11-11T04:41:29;100054.91;;;4.30;100.00
39897;BME280;25567;48.276;14.242;2022-11-11T04:44:16;100053.69;;;4.25;100.00
39897;BME280;25567;48.276;14.242;2022-11-11T04:46:58;100061.97;;;4.30;100.00
39897;BME280;25567;48.276;14.242;2022-11-11T04:49:24;100066.09;;;4.32;100.00
39897;BME280;25567;48.276;14.242;2022-11-11T04:51:54;100068.84;;;4.31;100.00
39897;BME280;25567;48.276;14.242;2022-11-11T04:54:36;100062.22;;;4.27;100.00
39897;BME280;25567;48.276;14.242;2022-11-11T04:57:23;100067.22;;;4.30;100.00
39897;BME280;25567;48.276;14.242;2022-11-11T04:59:49;100069.00;;;4.29;100.00
39897;BME280;25567;48.276;14.242;2022-11-11T05:02:16;100069.84;;;4.30;100.00
39897;BME280;25567;48.276;14.242;2022-11-11T05:04:58;100062.78;;;4.30;100.00
39897;BME280;25567;48.276;14.242;2022-11-11T05:07:24;100068.59;;;4.24;100.00
39897;BME280;25567;48.276;14.242;2022-11-11T05:10:07;100071.38;;;4.23;100.00
39897;BME280;25567;48.276;14.242;2022-11-11T05:12:33;100072.22;;;4.23;100.00
39897;BME280;25567;48.276;14.242;2022-11-11T05:15:00;100074.56;;;4.26;100.00
39897;BME280;25567;48.276;14.242;2022-11-11T05:17:42;100071.63;;;4.29;100.00
39897;BME280;25567;48.276;14.242;2022-11-11T05:20:23;100068.19;;;4.29;100.00
39897;BME280;25567;48.276;14.242;2022-11-11T05:23:05;100073.59;;;4.27;100.00
39897;BME280;25567;48.276;14.242;2022-11-11T05:25:32;100074.25;;;4.29;100.00
39897;BME280;25567;48.276;14.242;2022-11-11T05:27:59;100091.38;;;4.33;100.00
39897;BME280;25567;48.276;14.242;2022-11-11T05:30:26;100091.47;;;4.42;100.00
39897;BME280;25567;48.276;14.242;2022-11-11T05:32:54;100093.28;;;4.59;100.00
39897;BME280;25567;48.276;14.242;2022-11-11T05:35:21;100091.72;;;4.48;100.00
39897;BME280;25567;48.276;14.242;2022-11-11T05:37:48;100094.91;;;4.42;100.00
39897;BME280;25567;48.276;14.242;2022-11-11T05:40:35;100103.22;;;4.38;100.00
39897;BME280;25567;48.276;14.242;2022-11-11T05:43:01;100105.84;;;4.38;100.00
39897;BME280;25567;48.276;14.242;2022-11-11T05:45:28;100102.56;;;4.36;100.00
39897;BME280;25567;48.276;14.242;2022-11-11T05:47:59;100096.63;;;4.33;100.00
39897;BME280;25567;48.276;14.242;2022-11-11T05:50:26;100102.88;;;4.32;100.00
39897;BME280;25567;48.276;14.242;2022-11-11T05:52:53;100105.34;;;4.34;100.00
39897;BME280;25567;48.276;14.242;2022-11-11T05:55:21;100109.75;;;4.33;100.00
39897;BME280;25567;48.276;14.242;2022-11-11T05:57:48;100112.91;;;4.37;100.00
39897;BME280;25567;48.276;14.242;2022-11-11T06:00:15;100116.25;;;4.39;100.00
39897;BME280;25567;48.276;14.242;2022-11-11T06:02:42;100110.84;;;4.41;100.00
39897;BME280;25567;48.276;14.242;2022-11-11T06:05:08;100111.81;;;4.40;100.00
39897;BME280;25567;48.276;14.242;2022-11-11T06:07:37;100107.38;;;4.40;100.00
39897;BME280;25567;48.276;14.242;2022-11-11T06:10:06;100114.44;;;4.40;100.00
39897;BME280;25567;48.276;14.242;2022-11-11T06:12:48;100118.03;;;4.39;100.00
39897;BME280;25567;48.276;14.242;2022-11-11T06:15:31;100124.78;;;4.41;100.00
39897;BME280;25567;48.276;14.242;2022-11-11T06:17:58;100130.44;;;4.46;100.00
39897;BME280;25567;48.276;14.242;2022-11-11T06:20:26;100131.56;;;4.44;100.00
39897;BME280;25567;48.276;14.242;2022-11-11T06:22:53;100129.06;;;4.42;100.00
39897;BME280;25567;48.276;14.242;2022-11-11T06:25:23;100145.66;;;4.43;100.00
39897;BME280;25567;48.276;14.242;2022-11-11T06:28:05;100149.13;;;4.43;100.00
39897;BME280;25567;48.276;14.242;2022-11-11T06:30:32;100149.28;;;4.42;100.00
39897;BME280;25567;48.276;14.242;2022-11-11T06:33:19;100160.44;;;4.44;100.00
39897;BME280;25567;48.276;14.242;2022-11-11T06:35:48;100163.31;;;4.50;100.00
39897;BME280;25567;48.276;14.242;2022-11-11T06:38:15;100156.16;;;4.43;100.00
39897;BME280;25567;48.276;14.242;2022-11-11T06:40:42;100159.47;;;4.45;100.00
39897;BME280;25567;48.276;14.242;2022-11-11T06:43:10;100159.34;;;4.46;100.00
39897;BME280;25567;48.276;14.242;2022-11-11T06:45:37;100161.16;;;4.46;100.00
39897;BME280;25567;48.276;14.242;2022-11-11T06:48:04;100167.22;;;4.46;100.00
39897;BME280;25567;48.276;14.242;2022-11-11T06:50:31;100163.72;;;4.56;100.00
39897;BME280;25567;48.276;14.242;2022-11-11T06:53:07;100172.41;;;4.56;100.00
39897;BME280;25567;48.276;14.242;2022-11-11T06:55:34;100174.22;;;4.56;100.00
39897;BME280;25567;48.276;14.242;2022-11-11T06:58:09;100174.75;;;4.59;100.00
39897;BME280;25567;48.276;14.242;2022-11-11T07:00:37;100179.41;;;4.65;100.00
39897;BME280;25567;48.276;14.242;2022-11-11T07:03:06;100178.81;;;4.72;100.00
39897;BME280;25567;48.276;14.242;2022-11-11T07:05:33;100185.97;;;4.79;100.00
39897;BME280;25567;48.276;14.242;2022-11-11T07:08:02;100186.53;;;4.83;100.00
39897;BME280;25567;48.276;14.242;2022-11-11T07:10:30;100191.16;;;4.89;100.00
39897;BME280;25567;48.276;14.242;2022-11-11T07:12:57;100190.03;;;4.74;100.00
39897;BME280;25567;48.276;14.242;2022-11-11T07:15:24;100197.91;;;4.74;100.00
39897;BME280;25567;48.276;14.242;2022-11-11T07:17:51;100199.47;;;4.66;100.00
39897;BME280;25567;48.276;14.242;2022-11-11T07:20:18;100203.34;;;4.72;100.00
39897;BME280;25567;48.276;14.242;2022-11-11T07:22:44;100202.56;;;4.80;100.00
39897;BME280;25567;48.276;14.242;2022-11-11T07:25:12;100198.88;;;4.73;100.00
39897;BME280;25567;48.276;14.242;2022-11-11T07:27:40;100197.78;;;4.75;100.00
39897;BME280;25567;48.276;14.242;2022-11-11T07:30:08;100207.00;;;4.79;100.00
39897;BME280;25567;48.276;14.242;2022-11-11T07:32:35;100202.88;;;4.77;100.00
39897;BME280;25567;48.276;14.242;2022-11-11T07:35:03;100209.34;;;4.82;100.00
39897;BME280;25567;48.276;14.242;2022-11-11T07:37:30;100202.81;;;4.87;100.00
39897;BME280;25567;48.276;14.242;2022-11-11T07:39:57;100194.41;;;4.83;100.00
39897;BME280;25567;48.276;14.242;2022-11-11T07:42:23;100208.06;;;4.87;100.00
39897;BME280;25567;48.276;14.242;2022-11-11T07:44:57;100203.41;;;4.80;100.00
39897;BME280;25567;48.276;14.242;2022-11-11T07:47:24;100197.25;;;4.90;100.00
39897;BME280;25567;48.276;14.242;2022-11-11T07:49:50;100199.66;;;4.83;100.00
39897;BME280;25567;48.276;14.242;2022-11-11T07:52:17;100198.81;;;4.82;100.00
39897;BME280;25567;48.276;14.242;2022-11-11T07:54:43;100206.19;;;4.97;100.00
39897;BME280;25567;48.276;14.242;2022-11-11T07:57:10;100206.44;;;4.86;100.00
39897;BME280;25567;48.276;14.242;2022-11-11T07:59:36;100202.34;;;4.73;100.00
39897;BME280;25567;48.276;14.242;2022-11-11T08:02:03;100202.56;;;4.80;100.00
39897;BME280;25567;48.276;14.242;2022-11-11T08:04:30;100200.63;;;4.82;100.00
39897;BME280;25567;48.276;14.242;2022-11-11T08:06:58;100195.16;;;4.93;100.00
39897;BME280;25567;48.276;14.242;2022-11-11T08:09:24;100195.69;;;4.79;100.00
39897;BME280;25567;48.276;14.242;2022-11-11T08:11:51;100200.25;;;4.77;100.00
39897;BME280;25567;48.276;14.242;2022-11-11T08:14:33;100193.19;;;4.77;100.00
39897;BME280;25567;48.276;14.242;2022-11-11T08:16:59;100195.22;;;4.83;100.00
39897;BME280;25567;48.276;14.242;2022-11-11T08:19:26;100198.66;;;4.66;100.00
39897;BME280;25567;48.276;14.242;2022-11-11T08:21:53;100200.06;;;4.60;100.00
39897;BME280;25567;48.276;14.242;2022-11-11T08:24:20;100191.66;;;4.57;100.00
39897;BME280;25567;48.276;14.242;2022-11-11T08:27:07;100201.13;;;4.67;100.00
39897;BME280;25567;48.276;14.242;2022-11-11T08:29:38;100198.69;;;4.56;100.00
39897;BME280;25567;48.276;14.242;2022-11-11T08:32:04;100205.59;;;4.57;100.00
39897;BME280;25567;48.276;14.242;2022-11-11T08:34:31;100200.81;;;4.71;100.00
39897;BME280;25567;48.276;14.242;2022-11-11T08:36:58;100190.91;;;4.64;100.00
39897;BME280;25567;48.276;14.242;2022-11-11T08:39:24;100196.84;;;4.66;100.00
39897;BME280;25567;48.276;14.242;2022-11-11T08:41:51;100194.22;;;4.66;100.00
39897;BME280;25567;48.276;14.242;2022-11-11T08:44:18;100199.47;;;4.66;100.00
39897;BME280;25567;48.276;14.242;2022-11-11T08:46:45;100202.09;;;4.66;100.00
39897;BME280;25567;48.276;14.242;2022-11-11T08:49:11;100207.41;;;4.57;100.00
39897;BME280;25567;48.276;14.242;2022-11-11T08:51:38;100213.69;;;4.46;100.00
39897;BME280;25567;48.276;14.242;2022-11-11T08:54:10;100215.63;;;4.44;100.00
39897;BME280;25567;48.276;14.242;2022-11-11T08:56:40;100220.22;;;4.42;100.00
39897;BME280;25567;48.276;14.242;2022-11-11T08:59:08;100213.25;;;4.50;100.00
39897;BME280;25567;48.276;14.242;2022-11-11T09:01:35;100220.09;;;4.61;100.00
39897;BME280;25567;48.276;14.242;2022-11-11T09:04:02;100221.69;;;4.54;100.00
39897;BME280;25567;48.276;14.242;2022-11-11T09:06:49;100218.34;;;4.52;100.00
39897;BME280;25567;48.276;14.242;2022-11-11T09:09:16;100220.97;;;4.52;100.00
39897;BME280;25567;48.276;14.242;2022-11-11T09:11:43;100214.72;;;4.63;100.00
39897;BME280;25567;48.276;14.242;2022-11-11T09:14:10;100219.13;;;4.62;100.00
39897;BME280;25567;48.276;14.242;2022-11-11T09:16:37;100223.84;;;4.59;100.00
39897;BME280;25567;48.276;14.242;2022-11-11T09:19:03;100223.38;;;4.73;100.00
39897;BME280;25567;48.276;14.242;2022-11-11T09:21:30;100216.31;;;4.74;100.00
39897;BME280;25567;48.276;14.242;2022-11-11T09:23:56;100218.94;;;4.74;100.00
39897;BME280;25567;48.276;14.242;2022-11-11T09:26:25;100230.66;;;4.79;100.00
39897;BME280;25567;48.276;14.242;2022-11-11T09:28:52;100233.44;;;4.78;100.00
39897;BME280;25567;48.276;14.242;2022-11-11T09:31:18;100236.88;;;4.88;100.00
39897;BME280;25567;48.276;14.242;2022-11-11T09:34:05;100238.66;;;4.88;100.00
39897;BME280;25567;48.276;14.242;2022-11-11T09:36:32;100238.69;;;5.06;100.00
39897;BME280;25567;48.276;14.242;2022-11-11T09:38:59;100244.03;;;5.14;100.00
39897;BME280;25567;48.276;14.242;2022-11-11T09:47:16;100227.81;;;5.18;100.00
39897;BME280;25567;48.276;14.242;2022-11-11T09:50:03;100222.06;;;5.23;100.00
39897;BME280;25567;48.276;14.242;2022-11-11T09:52:39;100213.50;;;5.21;100.00
39897;BME280;25567;48.276;14.242;2022-11-11T09:55:23;100213.22;;;5.24;100.00
39897;BME280;25567;48.276;14.242;2022-11-11T09:57:56;100212.31;;;5.33;100.00
39897;BME280;25567;48.276;14.242;2022-11-11T10:00:30;100219.59;;;5.40;100.00
39897;BME280;25567;48.276;14.242;2022-11-11T10:03:04;100229.28;;;5.39;100.00
39897;BME280;25567;48.276;14.242;2022-11-11T10:05:38;100230.72;;;5.33;100.00
39897;BME280;25567;48.276;14.242;2022-11-11T10:08:12;100223.97;;;5.31;100.00
39897;BME280;25567;48.276;14.242;2022-11-11T10:10:44;100220.06;;;5.35;100.00
39897;BME280;25567;48.276;14.242;2022-11-11T10:13:14;100205.28;;;5.42;100.00
39897;BME280;25567;48.276;14.242;2022-11-11T10:15:52;100190.09;;;5.54;100.00
39897;BME280;25567;48.276;14.242;2022-11-11T10:21:22;100178.81;;;5.62;100.00
39897;BME280;25567;48.276;14.242;2022-11-11T10:23:54;100180.16;;;5.66;100.00
39897;BME280;25567;48.276;14.242;2022-11-11T10:29:17;100192.06;;;5.52;100.00
39897;BME280;25567;48.276;14.242;2022-11-11T10:31:54;100191.91;;;5.54;100.00
39897;BME280;25567;48.276;14.242;2022-11-11T10:34:27;100205.88;;;5.54;100.00
39897;BME280;25567;48.276;14.242;2022-11-11T10:36:55;100195.78;;;5.67;100.00
39897;BME280;25567;48.276;14.242;2022-11-11T10:39:28;100190.72;;;5.74;100.00
39897;BME280;25567;48.276;14.242;2022-11-11T10:41:58;100195.13;;;5.92;100.00
39897;BME280;25567;48.276;14.242;2022-11-11T10:44:30;100194.25;;;5.83;100.00
39897;BME280;25567;48.276;14.242;2022-11-11T10:47:02;100191.00;;;5.89;100.00
39897;BME280;25567;48.276;14.242;2022-11-11T10:49:37;100178.59;;;5.81;100.00
39897;BME280;25567;48.276;14.242;2022-11-11T10:52:09;100174.06;;;5.92;100.00
39897;BME280;25567;48.276;14.242;2022-11-11T10:54:57;100188.94;;;5.75;100.00
39897;BME280;25567;48.276;14.242;2022-11-11T10:57:35;100181.34;;;5.98;100.00
39897;BME280;25567;48.276;14.242;2022-11-11T11:00:07;100196.75;;;5.93;100.00
39897;BME280;25567;48.276;14.242;2022-11-11T11:02:54;100199.72;;;5.90;100.00
39897;BME280;25567;48.276;14.242;2022-11-11T11:05:48;100194.41;;;5.81;100.00
39897;BME280;25567;48.276;14.242;2022-11-11T11:08:20;100190.66;;;5.84;100.00
39897;BME280;25567;48.276;14.242;2022-11-11T11:10:54;100169.25;;;5.87;100.00
39897;BME280;25567;48.276;14.242;2022-11-11T11:13:39;100171.78;;;5.97;100.00
39897;BME280;25567;48.276;14.242;2022-11-11T11:16:13;100170.94;;;5.96;100.00
39897;BME280;25567;48.276;14.242;2022-11-11T11:18:41;100167.56;;;6.04;100.00
39897;BME280;25567;48.276;14.242;2022-11-11T11:21:09;100175.03;;;6.09;100.00
39897;BME280;25567;48.276;14.242;2022-11-11T11:23:42;100169.94;;;5.89;100.00
39897;BME280;25567;48.276;14.242;2022-11-11T11:26:10;100169.16;;;5.97;100.00
39897;BME280;25567;48.276;14.242;2022-11-11T11:28:55;100163.59;;;6.00;100.00
39897;BME280;25567;48.276;14.242;2022-11-11T11:31:34;100159.50;;;6.06;100.00
39897;BME280;25567;48.276;14.242;2022-11-11T11:34:03;100154.78;;;5.91;100.00
39897;BME280;25567;48.276;14.242;2022-11-11T11:36:30;100148.22;;;5.95;100.00
39897;BME280;25567;48.276;14.242;2022-11-11T11:38:57;100153.16;;;5.90;100.00
39897;BME280;25567;48.276;14.242;2022-11-11T11:41:40;100149.47;;;6.01;100.00
39897;BME280;25567;48.276;14.242;2022-11-11T11:58:23;100155.63;;;5.92;100.00
39897;BME280;25567;48.276;14.242;2022-11-11T12:11:14;100139.50;;;5.95;100.00
39897;BME280;25567;48.276;14.242;2022-11-11T12:21:23;100142.28;;;6.20;100.00
39897;BME280;25567;48.276;14.242;2022-11-11T12:23:57;100146.63;;;6.29;100.00
39897;BME280;25567;48.276;14.242;2022-11-11T12:26:37;100143.91;;;6.12;100.00
39897;BME280;25567;48.276;14.242;2022-11-11T12:37:19;100133.50;;;6.03;100.00
39897;BME280;25567;48.276;14.242;2022-11-11T12:40:06;100145.19;;;6.08;100.00
39897;BME280;25567;48.276;14.242;2022-11-11T12:45:47;100125.22;;;6.40;100.00
39897;BME280;25567;48.276;14.242;2022-11-11T12:51:20;100116.00;;;6.44;100.00
39897;BME280;25567;48.276;14.242;2022-11-11T12:59:24;100109.94;;;6.52;100.00
39897;BME280;25567;48.276;14.242;2022-11-11T13:02:11;100103.50;;;6.38;100.00
39897;BME280;25567;48.276;14.242;2022-11-11T13:07:33;100114.47;;;6.17;100.00
39897;BME280;25567;48.276;14.242;2022-11-11T13:13:18;100118.66;;;6.01;100.00
39897;BME280;25567;48.276;14.242;2022-11-11T13:15:49;100118.50;;;6.03;100.00
39897;BME280;25567;48.276;14.242;2022-11-11T13:18:22;100115.41;;;6.08;100.00
39897;BME280;25567;48.276;14.242;2022-11-11T13:20:58;100109.47;;;6.14;100.00
39897;BME280;25567;48.276;14.242;2022-11-11T13:23:26;100121.84;;;6.13;100.00
39897;BME280;25567;48.276;14.242;2022-11-11T13:25:57;100129.28;;;6.18;100.00
39897;BME280;25567;48.276;14.242;2022-11-11T13:28:34;100117.75;;;6.19;100.00
39897;BME280;25567;48.276;14.242;2022-11-11T13:33:44;100126.97;;;6.23;100.00
39897;BME280;25567;48.276;14.242;2022-11-11T13:36:15;100125.47;;;6.21;100.00
39897;BME280;25567;48.276;14.242;2022-11-11T13:38:47;100127.13;;;6.22;100.00
39897;BME280;25567;48.276;14.242;2022-11-11T13:41:28;100126.34;;;6.29;100.00
39897;BME280;25567;48.276;14.242;2022-11-11T13:43:58;100122.19;;;6.18;100.00
39897;BME280;25567;48.276;14.242;2022-11-11T13:46:34;100122.19;;;6.18;100.00
39897;BME280;25567;48.276;14.242;2022-11-11T13:49:04;100114.81;;;6.22;100.00
39897;BME280;25567;48.276;14.242;2022-11-11T13:51:41;100112.03;;;6.32;100.00
39897;BME280;25567;48.276;14.242;2022-11-11T13:56:51;100118.59;;;6.28;100.00
39897;BME280;25567;48.276;14.242;2022-11-11T13:59:25;100120.44;;;6.27;100.00
39897;BME280;25567;48.276;14.242;2022-11-11T14:02:13;100128.00;;;6.30;100.00
39897;BME280;25567;48.276;14.242;2022-11-11T14:07:51;100134.56;;;6.18;100.00
39897;BME280;25567;48.276;14.242;2022-11-11T14:12:49;100141.00;;;6.24;100.00
39897;BME280;25567;48.276;14.242;2022-11-11T14:18:00;100139.66;;;6.20;100.00
39897;BME280;25567;48.276;14.242;2022-11-11T14:20:38;100130.25;;;6.17;100.00
39897;BME280;25567;48.276;14.242;2022-11-11T14:23:22;100137.03;;;6.20;100.00
39897;BME280;25567;48.276;14.242;2022-11-11T14:28:48;100135.22;;;6.28;100.00
39897;BME280;25567;48.276;14.242;2022-11-11T14:33:55;100134.22;;;6.21;100.00
39897;BME280;25567;48.276;14.242;2022-11-11T14:36:38;100136.03;;;6.21;100.00
39897;BME280;25567;48.276;14.242;2022-11-11T14:41:52;100133.53;;;6.11;100.00